createdAt,value
2019-01-24T00:00:25.977Z,29.73
2019-01-24T00:02:53.398Z,29.07
2019-01-24T00:05:20.667Z,29.13
2019-01-24T00:07:48.008Z,29.37
2019-01-24T00:10:15.308Z,28.43
2019-01-24T00:12:42.839Z,29.63
2019-01-24T00:15:10.597Z,28.97
2019-01-24T00:17:38.170Z,31.43
2019-01-24T00:20:10.377Z,29.10
2019-01-24T00:22:37.856Z,27.67
2019-01-24T00:25:08.258Z,28.97
2019-01-24T00:27:35.627Z,27.77
2019-01-24T00:30:13.118Z,28.00
2019-01-24T00:32:40.647Z,26.80
2019-01-24T00:35:09.478Z,26.17
2019-01-24T00:37:36.987Z,27.03
2019-01-24T00:40:17.347Z,27.63
2019-01-24T00:42:45.026Z,26.83
2019-01-24T00:45:14.037Z,27.33
2019-01-24T00:47:41.601Z,28.50
2019-01-24T00:50:12.597Z,26.20
2019-01-24T00:52:39.947Z,27.07
2019-01-24T00:55:13.712Z,27.23
2019-01-24T00:57:41.418Z,26.93
2019-01-24T01:00:16.897Z,28.40
2019-01-24T01:02:44.337Z,27.87
2019-01-24T01:05:12.677Z,27.80
2019-01-24T01:07:40.346Z,25.73
2019-01-24T01:10:10.370Z,28.27
2019-01-24T01:12:37.928Z,26.43
2019-01-24T01:15:12.354Z,27.77
2019-01-24T01:17:40.052Z,28.57
2019-01-24T01:20:12.127Z,27.37
2019-01-24T01:22:39.763Z,28.23
2019-01-24T01:25:10.457Z,29.23
2019-01-24T01:27:38.007Z,28.87
2019-01-24T01:30:13.638Z,29.97
2019-01-24T01:32:41.167Z,29.87
2019-01-24T01:35:08.858Z,30.03
2019-01-24T01:37:36.879Z,29.23
2019-01-24T01:40:09.287Z,30.33
2019-01-24T01:42:37.198Z,31.60
2019-01-24T01:45:09.598Z,29.00
2019-01-24T01:47:37.086Z,29.20
2019-01-24T01:50:09.787Z,31.20
2019-01-24T01:52:37.328Z,29.93
2019-01-24T01:55:05.938Z,29.40
2019-01-24T01:57:33.651Z,29.23
2019-01-24T02:00:01.277Z,29.97
2019-01-24T02:02:28.827Z,31.43
2019-01-24T02:04:56.197Z,29.87
2019-01-24T02:07:23.609Z,29.07
2019-01-24T02:09:50.839Z,30.87
2019-01-24T02:12:18.138Z,30.50
2019-01-24T02:14:45.447Z,31.07
2019-01-24T02:17:12.747Z,30.30
2019-01-24T02:19:40.318Z,30.53
2019-01-24T02:22:07.731Z,31.10
2019-01-24T02:24:35.256Z,31.57
2019-01-24T02:27:02.778Z,31.10
2019-01-24T02:29:30.008Z,31.67
2019-01-24T02:31:57.467Z,32.07
2019-01-24T02:34:24.846Z,30.63
2019-01-24T02:36:52.357Z,32.10
2019-01-24T02:39:19.688Z,30.87
2019-01-24T02:41:47.049Z,32.97
2019-01-24T02:44:14.607Z,32.50
2019-01-24T02:46:42.048Z,31.47
2019-01-24T02:49:09.358Z,33.07
2019-01-24T02:51:36.699Z,30.73
2019-01-24T02:54:04.097Z,30.53
2019-01-24T02:56:31.338Z,31.23
2019-01-24T02:58:58.747Z,32.57
2019-01-24T03:01:26.467Z,33.47
2019-01-24T03:03:54.379Z,32.23
2019-01-24T03:06:21.778Z,31.17
2019-01-24T03:08:49.589Z,31.30
2019-01-24T03:11:16.771Z,33.10
2019-01-24T03:13:44.060Z,32.80
2019-01-24T03:16:11.376Z,33.73
2019-01-24T03:18:38.566Z,33.77
2019-01-24T03:21:19.208Z,34.43
2019-01-24T03:23:46.808Z,32.97
2019-01-24T03:26:14.357Z,33.60
2019-01-24T03:28:41.999Z,34.67
2019-01-24T03:31:09.458Z,35.13
2019-01-24T03:33:37.458Z,35.20
2019-01-24T03:36:05.419Z,35.43
2019-01-24T03:38:33.060Z,33.57
2019-01-24T03:41:00.747Z,35.17
2019-01-24T03:43:28.649Z,37.07
2019-01-24T03:45:56.177Z,37.77
2019-01-24T03:48:24.196Z,36.63
2019-01-24T03:50:52.080Z,36.70
2019-01-24T03:53:19.368Z,36.70
2019-01-24T03:55:47.067Z,37.50
2019-01-24T03:58:14.418Z,38.23
2019-01-24T04:00:41.978Z,37.57
2019-01-24T04:03:09.377Z,36.77
2019-01-24T04:05:37.405Z,36.47
2019-01-24T04:08:04.821Z,37.57
2019-01-24T04:10:32.676Z,35.27
2019-01-24T04:13:00.580Z,36.03
2019-01-24T04:15:28.138Z,36.27
2019-01-24T04:17:55.981Z,37.10
2019-01-24T04:20:23.531Z,36.73
2019-01-24T04:22:51.238Z,37.40
2019-01-24T04:25:18.794Z,36.70
2019-01-24T04:27:46.157Z,38.83
2019-01-24T04:30:20.695Z,37.80
2019-01-24T04:32:48.246Z,36.33
2019-01-24T04:35:20.067Z,39.87
2019-01-24T04:37:45.579Z,37.93
2019-01-24T04:40:15.569Z,38.00
2019-01-24T04:42:43.010Z,38.40
2019-01-24T04:45:13.651Z,38.63
2019-01-24T04:47:41.097Z,38.00
2019-01-24T04:50:12.408Z,41.00
2019-01-24T04:52:39.790Z,38.47
2019-01-24T04:55:11.998Z,38.17
2019-01-24T04:57:39.528Z,39.37
2019-01-24T05:00:24.117Z,38.53
2019-01-24T05:02:51.476Z,39.43
2019-01-24T05:05:19.138Z,40.60
2019-01-24T05:07:46.748Z,40.60
2019-01-24T05:10:14.300Z,42.17
2019-01-24T05:12:41.840Z,39.67
2019-01-24T05:15:09.596Z,40.87
2019-01-24T05:17:37.008Z,41.00
2019-01-24T05:20:11.607Z,41.17
2019-01-24T05:22:39.106Z,42.27
2019-01-24T05:25:13.277Z,43.27
2019-01-24T05:27:40.638Z,44.37
2019-01-24T05:30:16.147Z,42.80
2019-01-24T05:32:43.586Z,44.10
2019-01-24T05:35:11.587Z,42.83
2019-01-24T05:37:39.126Z,42.53
2019-01-24T05:40:08.507Z,44.37
2019-01-24T05:42:35.997Z,44.37
2019-01-24T05:45:07.763Z,43.20
2019-01-24T05:47:35.397Z,40.03
2019-01-24T05:50:06.909Z,41.87
2019-01-24T05:52:34.259Z,41.57
2019-01-24T05:55:01.697Z,41.40
2019-01-24T05:57:29.287Z,42.60
2019-01-24T05:59:56.578Z,41.33
2019-01-24T06:02:23.839Z,43.33
2019-01-24T06:04:51.447Z,42.10
2019-01-24T06:07:19.132Z,42.00
2019-01-24T06:09:46.547Z,41.63
2019-01-24T06:12:13.969Z,41.10
2019-01-24T06:14:41.288Z,43.47
2019-01-24T06:17:08.690Z,41.27
2019-01-24T06:19:36.177Z,43.83
2019-01-24T06:22:03.628Z,42.53
2019-01-24T06:24:31.169Z,44.23
2019-01-24T06:26:58.608Z,44.17
2019-01-24T06:29:25.723Z,46.10
2019-01-24T06:31:53.117Z,45.70
2019-01-24T06:34:20.718Z,47.03
2019-01-24T06:36:48.007Z,49.17
2019-01-24T06:39:15.287Z,48.87
2019-01-24T06:41:42.837Z,46.73
2019-01-24T06:44:10.257Z,46.50
2019-01-24T06:46:37.528Z,47.07
2019-01-24T06:49:04.930Z,47.37
2019-01-24T06:51:32.287Z,46.83
2019-01-24T06:53:59.477Z,45.90
2019-01-24T06:56:27.048Z,50.20
2019-01-24T06:58:54.487Z,45.97
2019-01-24T07:01:21.757Z,49.10
2019-01-24T07:03:49.257Z,48.30
2019-01-24T07:06:17.148Z,50.20
2019-01-24T07:08:44.417Z,49.20
2019-01-24T07:11:12.087Z,50.23
2019-01-24T07:13:39.527Z,52.47
2019-01-24T07:16:07.018Z,50.00
2019-01-24T07:18:34.240Z,47.67
2019-01-24T07:21:01.867Z,51.30
2019-01-24T07:23:29.677Z,51.03
2019-01-24T07:25:57.097Z,51.07
2019-01-24T07:28:24.299Z,51.40
2019-01-24T07:30:52.230Z,48.93
2019-01-24T07:33:19.778Z,50.10
2019-01-24T07:35:47.458Z,48.23
2019-01-24T07:38:14.979Z,49.70
2019-01-24T07:40:42.427Z,48.67
2019-01-24T07:43:09.769Z,50.40
2019-01-24T07:45:39.308Z,51.27
2019-01-24T07:48:06.597Z,50.77
2019-01-24T07:50:34.067Z,51.77
2019-01-24T07:53:01.547Z,52.37
2019-01-24T07:55:28.868Z,50.90
2019-01-24T07:57:56.277Z,52.47
2019-01-24T08:00:27.167Z,53.57
2019-01-24T08:02:54.676Z,50.17
2019-01-24T08:05:23.637Z,52.23
2019-01-24T08:07:51.087Z,51.97
2019-01-24T08:10:20.817Z,51.20
2019-01-24T08:12:48.626Z,49.20
2019-01-24T08:15:20.459Z,47.90
2019-01-24T08:17:48.557Z,49.23
2019-01-24T08:20:25.817Z,46.47
2019-01-24T08:22:53.333Z,51.73
2019-01-24T08:25:22.017Z,48.73
2019-01-24T08:27:49.478Z,50.13
2019-01-24T08:30:22.137Z,47.43
2019-01-24T08:32:49.581Z,47.63
2019-01-24T08:35:17.509Z,45.60
2019-01-24T08:37:45.211Z,47.17
2019-01-24T08:40:20.469Z,46.40
2019-01-24T08:42:48.338Z,45.63
2019-01-24T08:45:16.318Z,45.93
2019-01-24T08:47:43.808Z,44.63
2019-01-24T08:50:22.127Z,46.33
2019-01-24T08:52:49.609Z,42.43
2019-01-24T08:55:33.897Z,46.50
2019-01-24T08:58:01.377Z,43.87
2019-01-24T09:00:28.837Z,44.33
2019-01-24T09:02:57.457Z,43.27
2019-01-24T09:05:24.999Z,43.93
2019-01-24T09:07:52.309Z,43.23
2019-01-24T09:10:24.619Z,43.23
2019-01-24T09:12:52.180Z,42.77
2019-01-24T09:15:19.657Z,43.37
2019-01-24T09:17:47.317Z,43.10
2019-01-24T09:20:17.678Z,42.33
2019-01-24T09:22:45.868Z,41.40
2019-01-24T09:25:14.438Z,41.73
2019-01-24T09:27:42.297Z,43.07
2019-01-24T09:30:14.710Z,42.67
2019-01-24T09:32:42.397Z,40.97
2019-01-24T09:35:10.987Z,40.80
2019-01-24T09:37:38.348Z,41.30
2019-01-24T09:40:21.148Z,40.63
2019-01-24T09:42:48.578Z,40.97
2019-01-24T09:45:25.368Z,39.80
2019-01-24T09:47:54.856Z,39.70
2019-01-24T09:50:24.717Z,39.03
2019-01-24T09:52:52.217Z,39.13
2019-01-24T09:55:19.827Z,38.40
2019-01-24T09:57:47.887Z,36.73
2019-01-24T10:00:28.488Z,36.67
2019-01-24T10:02:56.297Z,36.23
2019-01-24T10:05:43.707Z,36.40
2019-01-24T10:08:11.298Z,36.27
2019-01-24T10:10:38.987Z,33.83
2019-01-24T10:13:06.457Z,34.60
2019-01-24T10:15:33.987Z,35.40
2019-01-24T10:18:01.278Z,35.30
2019-01-24T10:20:28.648Z,33.50
2019-01-24T10:22:56.197Z,34.83
2019-01-24T10:25:51.684Z,32.13
2019-01-24T10:28:19.308Z,30.10
2019-01-24T10:30:46.589Z,29.57
2019-01-24T10:33:14.268Z,26.93
2019-01-24T10:35:41.788Z,25.83
2019-01-24T10:38:09.427Z,26.30
2019-01-24T10:40:37.360Z,25.20
2019-01-24T10:43:04.922Z,25.63
2019-01-24T10:45:32.268Z,26.77
2019-01-24T10:47:59.843Z,25.90
2019-01-24T10:50:28.231Z,27.97
2019-01-24T10:52:55.877Z,25.67
2019-01-24T10:55:26.208Z,23.53
2019-01-24T10:57:56.148Z,24.03
2019-01-24T11:00:36.797Z,24.13
2019-01-24T11:03:08.177Z,24.30
2019-01-24T11:05:35.649Z,24.20
2019-01-24T11:08:04.208Z,23.63
2019-01-24T11:10:32.626Z,25.43
2019-01-24T11:13:00.168Z,27.20
2019-01-24T11:15:27.727Z,27.13
2019-01-24T11:17:55.190Z,28.03
2019-01-24T11:20:22.551Z,26.63
2019-01-24T11:22:50.644Z,25.47
2019-01-24T11:25:26.327Z,27.70
2019-01-24T11:27:54.098Z,28.83
2019-01-24T11:30:27.031Z,29.30
2019-01-24T11:32:55.132Z,25.30
2019-01-24T11:35:29.407Z,24.90
2019-01-24T11:38:07.212Z,25.27
2019-01-24T11:40:35.628Z,25.00
2019-01-24T11:43:04.080Z,24.10
2019-01-24T11:45:36.179Z,25.97
2019-01-24T11:48:04.996Z,26.63
2019-01-24T11:50:32.380Z,26.07
2019-01-24T11:52:59.777Z,26.83
2019-01-24T11:55:27.417Z,24.57
2019-01-24T11:57:54.737Z,23.93
2019-01-24T12:00:33.729Z,24.63
2019-01-24T12:03:01.127Z,25.40
2019-01-24T12:05:28.698Z,26.30
2019-01-24T12:07:56.657Z,26.10
2019-01-24T12:10:26.930Z,24.50
2019-01-24T12:12:54.470Z,24.53
2019-01-24T12:15:27.509Z,24.90
2019-01-24T12:17:55.147Z,24.57
2019-01-24T12:20:25.067Z,23.87
2019-01-24T12:22:52.737Z,23.43
2019-01-24T12:25:20.207Z,25.33
2019-01-24T12:27:47.737Z,24.07
2019-01-24T12:30:31.212Z,22.90
2019-01-24T12:32:59.548Z,24.23
2019-01-24T12:35:27.716Z,23.93
2019-01-24T12:37:56.097Z,23.63
2019-01-24T12:40:23.817Z,26.13
2019-01-24T12:42:51.789Z,25.30
2019-01-24T12:45:23.428Z,26.80
2019-01-24T12:47:50.988Z,27.83
2019-01-24T12:50:19.335Z,28.93
2019-01-24T12:52:47.037Z,28.13
2019-01-24T12:55:15.608Z,26.17
2019-01-24T12:57:43.017Z,27.27
2019-01-24T13:00:17.763Z,28.30
2019-01-24T13:02:45.448Z,29.17
2019-01-24T13:05:13.112Z,28.03
2019-01-24T13:07:40.628Z,27.53
2019-01-24T13:10:18.488Z,25.80
2019-01-24T13:12:46.539Z,28.07
2019-01-24T13:15:18.097Z,28.63
2019-01-24T13:17:45.730Z,30.40
2019-01-24T13:20:15.908Z,27.83
2019-01-24T13:22:43.289Z,28.73
2019-01-24T13:25:20.547Z,28.60
2019-01-24T13:27:47.868Z,27.23
2019-01-24T13:30:19.168Z,25.53
2019-01-24T13:32:46.582Z,25.83
2019-01-24T13:35:14.669Z,24.67
2019-01-24T13:37:41.989Z,27.97
2019-01-24T13:40:22.258Z,25.43
2019-01-24T13:42:49.777Z,27.53
2019-01-24T13:45:30.602Z,26.77
2019-01-24T13:47:58.157Z,27.50
2019-01-24T13:50:25.646Z,27.10
2019-01-24T13:52:53.189Z,25.30
2019-01-24T13:55:21.047Z,25.13
2019-01-24T13:57:48.591Z,27.10
2019-01-24T14:00:19.724Z,25.50
2019-01-24T14:02:51.377Z,26.03
2019-01-24T14:05:19.607Z,26.53
2019-01-24T14:07:47.664Z,30.20
2019-01-24T14:10:18.658Z,29.00
2019-01-24T14:12:46.330Z,29.57
2019-01-24T14:15:18.968Z,30.57
2019-01-24T14:17:46.326Z,31.20
2019-01-24T14:20:20.799Z,29.87
2019-01-24T14:22:48.447Z,29.33
2019-01-24T14:25:18.537Z,28.27
2019-01-24T14:27:46.138Z,29.07
2019-01-24T14:30:21.113Z,27.83
2019-01-24T14:32:48.797Z,27.93
2019-01-24T14:35:16.370Z,27.77
2019-01-24T14:37:43.997Z,29.70
2019-01-24T14:40:14.015Z,28.97
2019-01-24T14:42:41.467Z,28.97
2019-01-24T14:45:25.390Z,28.30
2019-01-24T14:47:53.781Z,28.80
2019-01-24T14:50:26.707Z,28.90
2019-01-24T14:52:54.237Z,28.27
2019-01-24T14:55:21.799Z,28.80
2019-01-24T14:57:49.447Z,30.30
2019-01-24T15:00:41.448Z,29.43
2019-01-24T15:03:11.668Z,31.83
2019-01-24T15:05:39.571Z,33.23
2019-01-24T15:08:08.050Z,34.53
2019-01-24T15:10:35.531Z,34.93
2019-01-24T15:13:04.459Z,34.97
2019-01-24T15:15:32.028Z,35.00
2019-01-24T15:18:01.758Z,35.07
2019-01-24T15:20:29.067Z,35.33
2019-01-24T15:22:56.111Z,35.53
2019-01-24T15:25:23.829Z,36.00
2019-01-24T15:27:51.348Z,37.73
2019-01-24T15:30:28.979Z,35.97
2019-01-24T15:32:57.078Z,36.17
2019-01-24T15:35:26.903Z,34.87
2019-01-24T15:37:54.936Z,33.70
2019-01-24T15:40:30.197Z,34.30
2019-01-24T15:42:57.857Z,33.87
2019-01-24T15:45:25.237Z,36.27
2019-01-24T15:47:52.939Z,36.13
2019-01-24T15:50:22.057Z,34.00
2019-01-24T15:52:50.157Z,34.93
2019-01-24T15:55:17.638Z,38.63
2019-01-24T15:57:44.867Z,37.80
2019-01-24T16:00:25.890Z,35.83
2019-01-24T16:02:53.497Z,36.27
2019-01-24T16:05:21.119Z,35.83
2019-01-24T16:07:48.738Z,36.97
2019-01-24T16:10:22.719Z,35.93
2019-01-24T16:12:50.890Z,36.27
2019-01-24T16:15:28.489Z,35.50
2019-01-24T16:17:55.897Z,37.60
2019-01-24T16:20:26.349Z,36.67
2019-01-24T16:22:53.678Z,35.93
2019-01-24T16:25:25.097Z,35.37
2019-01-24T16:27:52.537Z,38.07
2019-01-24T16:30:24.307Z,37.87
2019-01-24T16:32:52.208Z,39.57
2019-01-24T16:35:20.139Z,37.57
2019-01-24T16:37:47.658Z,36.40
2019-01-24T16:40:19.171Z,37.50
2019-01-24T16:42:46.427Z,38.57
2019-01-24T16:45:18.158Z,37.90
2019-01-24T16:47:45.580Z,38.77
2019-01-24T16:50:16.238Z,39.80
2019-01-24T16:52:43.537Z,39.70
2019-01-24T16:55:13.947Z,40.03
2019-01-24T16:57:41.719Z,38.73
2019-01-24T17:00:34.527Z,41.20
2019-01-24T17:03:01.785Z,40.57
2019-01-24T17:07:56.260Z,42.17
2019-01-24T17:10:26.268Z,39.37
2019-01-24T17:12:53.738Z,38.07
2019-01-24T17:15:21.459Z,42.03
2019-01-24T17:17:48.940Z,39.73
2019-01-24T17:20:26.527Z,39.67
2019-01-24T17:22:53.867Z,41.37
2019-01-24T17:25:23.247Z,40.57
2019-01-24T17:27:50.880Z,40.30
2019-01-24T17:30:21.501Z,42.13
2019-01-24T17:32:49.027Z,42.30
2019-01-24T17:35:16.908Z,41.67
2019-01-24T17:37:44.185Z,42.83
2019-01-24T17:40:19.511Z,41.57
2019-01-24T17:42:46.949Z,42.53
2019-01-24T17:45:15.320Z,43.83
2019-01-24T17:47:43.239Z,42.67
2019-01-24T17:50:13.589Z,42.50
2019-01-24T17:52:40.907Z,40.10
2019-01-24T17:55:13.367Z,42.17
2019-01-24T17:57:41.120Z,41.87
2019-01-24T18:00:14.457Z,38.70
2019-01-24T18:02:41.877Z,40.10
2019-01-24T18:05:09.913Z,39.43
2019-01-24T18:07:37.277Z,39.83
2019-01-24T18:10:14.217Z,39.33
2019-01-24T18:12:41.977Z,39.83
2019-01-24T18:15:14.778Z,39.73
2019-01-24T18:17:42.507Z,38.03
2019-01-24T18:20:18.374Z,37.87
2019-01-24T18:22:44.457Z,37.43
2019-01-24T18:25:11.917Z,40.13
2019-01-24T18:27:39.587Z,39.07
2019-01-24T18:30:21.213Z,37.60
2019-01-24T18:32:48.965Z,36.40
2019-01-24T18:35:16.589Z,37.07
2019-01-24T18:37:44.519Z,36.20
2019-01-24T18:40:31.738Z,34.63
2019-01-24T18:43:00.081Z,36.97
2019-01-24T18:45:47.658Z,35.20
2019-01-24T18:48:15.017Z,36.03
2019-01-24T18:50:42.619Z,34.53
2019-01-24T18:53:10.228Z,35.47
2019-01-24T18:55:37.737Z,38.07
2019-01-24T18:58:05.631Z,37.43
2019-01-24T19:00:34.867Z,37.10
2019-01-24T19:03:03.947Z,35.90
2019-01-24T19:05:31.770Z,35.70
2019-01-24T19:07:59.078Z,35.20
2019-01-24T19:10:26.476Z,35.63
2019-01-24T19:12:53.977Z,35.70
2019-01-24T19:15:23.038Z,36.63
2019-01-24T19:17:50.487Z,34.70
2019-01-24T19:20:17.797Z,34.53
2019-01-24T19:22:45.458Z,34.43
2019-01-24T19:25:15.349Z,36.83
2019-01-24T19:27:42.807Z,36.33
2019-01-24T19:30:29.083Z,33.43
2019-01-24T19:32:56.789Z,37.60
2019-01-24T19:35:25.113Z,37.27
2019-01-24T19:37:52.579Z,37.57
2019-01-24T19:40:26.259Z,36.50
2019-01-24T19:42:53.837Z,35.90
2019-01-24T19:45:26.687Z,35.10
2019-01-24T19:47:54.469Z,36.77
2019-01-24T19:50:25.205Z,36.23
2019-01-24T19:52:52.648Z,36.00
2019-01-24T19:55:20.189Z,38.67
2019-01-24T19:57:47.670Z,38.20
2019-01-24T20:00:22.527Z,39.60
2019-01-24T20:02:50.709Z,37.93
2019-01-24T20:05:19.538Z,38.13
2019-01-24T20:07:47.017Z,37.40
2019-01-24T20:10:21.577Z,38.47
2019-01-24T20:12:49.232Z,39.23
2019-01-24T20:15:21.089Z,37.43
2019-01-24T20:17:49.598Z,37.07
2019-01-24T20:20:18.278Z,38.37
2019-01-24T20:22:46.527Z,38.73
2019-01-24T20:25:20.690Z,39.93
2019-01-24T20:27:48.167Z,38.50
2019-01-24T20:30:23.437Z,37.87
2019-01-24T20:32:51.418Z,39.73
2019-01-24T20:35:42.020Z,38.97
2019-01-24T20:38:11.067Z,36.43
2019-01-24T20:40:38.968Z,39.20
2019-01-24T20:43:09.787Z,37.80
2019-01-24T20:45:38.238Z,37.57
2019-01-24T20:48:06.348Z,38.97
2019-01-24T20:50:33.648Z,39.50
2019-01-24T20:53:01.229Z,39.73
2019-01-24T20:55:28.598Z,40.63
2019-01-24T20:58:15.747Z,40.20
2019-01-24T21:00:43.658Z,40.57
2019-01-24T21:03:12.357Z,41.13
2019-01-24T21:05:39.869Z,40.67
2019-01-24T21:08:07.789Z,41.47
2019-01-24T21:10:35.428Z,41.37
2019-01-24T21:13:03.298Z,45.03
2019-01-24T21:15:30.857Z,47.67
2019-01-24T21:17:58.168Z,44.50
2019-01-24T21:20:30.870Z,44.77
2019-01-24T21:22:58.378Z,40.50
2019-01-24T21:25:26.707Z,49.33
2019-01-24T21:27:54.847Z,47.33
2019-01-24T21:30:34.777Z,42.60
2019-01-24T21:33:02.823Z,40.70
2019-01-24T21:35:31.747Z,39.60
2019-01-24T21:37:59.201Z,40.67
2019-01-24T21:40:26.777Z,41.10
2019-01-24T21:42:54.584Z,41.50
2019-01-24T21:45:35.607Z,41.70
2019-01-24T21:48:05.167Z,42.23
2019-01-24T21:50:33.338Z,42.93
2019-01-24T21:53:02.178Z,42.40
2019-01-24T21:55:30.473Z,42.13
2019-01-24T21:57:58.867Z,41.17
2019-01-24T22:00:28.619Z,42.03
2019-01-24T22:02:56.858Z,42.53
2019-01-24T22:05:24.697Z,41.70
2019-01-24T22:07:52.678Z,39.33
2019-01-24T22:10:25.158Z,41.53
2019-01-24T22:12:53.468Z,42.53
2019-01-24T22:15:29.828Z,40.60
2019-01-24T22:17:57.990Z,42.60
2019-01-24T22:20:26.010Z,40.30
2019-01-24T22:23:15.238Z,41.33
2019-01-24T22:25:42.548Z,40.50
2019-01-24T22:28:09.879Z,42.57
2019-01-24T22:30:42.101Z,41.60
2019-01-24T22:33:09.587Z,41.27
2019-01-24T22:35:37.919Z,42.03
2019-01-24T22:38:07.168Z,42.47
2019-01-24T22:40:34.908Z,40.10
2019-01-24T22:43:02.338Z,42.30
2019-01-24T22:45:29.757Z,41.27
2019-01-24T22:47:57.177Z,41.90
2019-01-24T22:50:24.529Z,41.63
2019-01-24T22:52:52.048Z,41.40
2019-01-24T22:55:19.493Z,41.57
2019-01-24T22:57:46.818Z,41.90
2019-01-24T23:00:55.357Z,41.67
2019-01-24T23:03:34.577Z,39.60
2019-01-24T23:06:01.957Z,39.10
2019-01-24T23:08:29.308Z,39.43
2019-01-24T23:10:56.628Z,39.83
2019-01-24T23:13:24.038Z,39.53
2019-01-24T23:15:51.287Z,39.07
2019-01-24T23:18:18.857Z,39.17
2019-01-24T23:20:46.330Z,40.63
2019-01-24T23:23:13.531Z,41.57
2019-01-24T23:25:40.717Z,40.63
2019-01-24T23:28:08.032Z,42.70
2019-01-24T23:30:35.887Z,39.43
2019-01-24T23:33:04.008Z,41.43
2019-01-24T23:35:31.799Z,40.40
2019-01-24T23:37:59.056Z,42.13
2019-01-24T23:40:26.549Z,39.60
2019-01-24T23:42:54.009Z,41.30
2019-01-24T23:45:21.461Z,39.47
2019-01-24T23:47:48.900Z,40.97
2019-01-24T23:50:16.347Z,42.57
2019-01-24T23:52:43.819Z,39.03
2019-01-24T23:55:11.449Z,42.47
2019-01-24T23:57:38.829Z,40.13
